createdAt,value
2022-10-01T00:08:49.626Z,100073.78
2022-10-01T00:18:53.707Z,100107.44
2022-10-01T00:28:57.993Z,100031.88
2022-10-01T00:39:02.564Z,100088.59
2022-10-01T00:49:09.314Z,100071.13
2022-10-01T00:59:12.455Z,100071.97
2022-10-01T01:09:14.610Z,100078.16
2022-10-01T01:19:38.823Z,100067.09
2022-10-01T01:29:55.494Z,100072.97
2022-10-01T01:40:00.384Z,100092.94
2022-10-01T01:50:03.953Z,100091.47
2022-10-01T02:00:06.125Z,100079.50
2022-10-01T02:10:10.708Z,100065.75
2022-10-01T02:20:22.386Z,100051.09
2022-10-01T02:30:24.361Z,100066.69
2022-10-01T02:40:28.333Z,100075.44
2022-10-01T02:50:36.561Z,100066.06
2022-10-01T03:00:38.130Z,100074.63
2022-10-01T03:10:43.439Z,100082.38
2022-10-01T03:20:48.167Z,100063.41
2022-10-01T03:30:49.982Z,100061.69
2022-10-01T03:40:51.708Z,100085.75
2022-10-01T03:50:57.464Z,100119.59
2022-10-01T04:01:00.840Z,100094.38
2022-10-01T04:11:02.451Z,100061.59
2022-10-01T04:21:04.600Z,100070.91
2022-10-01T04:31:24.640Z,100061.19
2022-10-01T04:41:26.711Z,100072.34
2022-10-01T04:51:28.427Z,100062.13
2022-10-01T05:01:32.609Z,100069.88
2022-10-01T05:11:35.139Z,100068.03
2022-10-01T05:21:37.702Z,100107.72
2022-10-01T05:31:44.239Z,100124.16
2022-10-01T05:41:48.243Z,100111.91
2022-10-01T05:51:50.408Z,100101.38
2022-10-01T06:01:52.226Z,100084.22
2022-10-01T06:11:54.162Z,100087.41
2022-10-01T06:21:56.831Z,100063.34
2022-10-01T06:31:58.566Z,100043.94
2022-10-01T06:42:00.355Z,100078.56
2022-10-01T06:52:21.648Z,100070.53
2022-10-01T07:02:30.259Z,100062.41
2022-10-01T07:12:36.513Z,100071.66
2022-10-01T07:22:38.162Z,100066.88
2022-10-01T07:32:41.753Z,100046.84
2022-10-01T07:42:44.398Z,100041.25
2022-10-01T07:52:50.792Z,100039.19
2022-10-01T08:02:56.164Z,100045.53
2022-10-01T08:13:08.271Z,100043.03
2022-10-01T08:23:13.143Z,100037.88
2022-10-01T08:33:18.855Z,100045.53
2022-10-01T08:43:33.507Z,100018.09
2022-10-01T08:53:41.010Z,99995.53
2022-10-01T09:03:42.689Z,100000.06
2022-10-01T09:14:04.356Z,99994.03
2022-10-01T09:24:20.965Z,99993.88
2022-10-01T09:34:39.968Z,99989.56
2022-10-01T09:44:42.855Z,99976.47
2022-10-01T09:54:55.419Z,99978.00
2022-10-01T10:05:10.192Z,99963.03
2022-10-01T10:15:18.945Z,99957.19
2022-10-01T10:25:29.639Z,99940.06
2022-10-01T10:35:32.827Z,99929.81
2022-10-01T10:45:38.773Z,99917.50
2022-10-01T10:55:43.691Z,99919.47
2022-10-01T11:05:52.102Z,99902.16
2022-10-01T11:15:59.609Z,99884.81
2022-10-01T11:26:40.843Z,99864.34
2022-10-01T11:37:39.697Z,99836.72
2022-10-01T11:47:52.417Z,99819.53
2022-10-01T11:58:19.607Z,99811.25
2022-10-01T12:08:27.699Z,99800.06
2022-10-01T12:18:35.486Z,99795.66
2022-10-01T12:29:07.343Z,99775.59
2022-10-01T12:39:35.256Z,99771.09
2022-10-01T12:49:48.541Z,99776.00
2022-10-01T13:00:18.172Z,99766.75
2022-10-01T13:10:32.388Z,99716.66
2022-10-01T13:21:13.449Z,99714.44
2022-10-01T13:31:20.888Z,99713.28
2022-10-01T13:41:30.159Z,99690.56
2022-10-01T13:51:37.509Z,99676.97
2022-10-01T14:01:41.809Z,99656.03
2022-10-01T14:12:06.939Z,99671.13
2022-10-01T14:22:16.655Z,99661.88
2022-10-01T14:32:36.758Z,99675.66
2022-10-01T14:42:40.065Z,99671.50
2022-10-01T14:52:50.034Z,99650.22
2022-10-01T15:03:01.811Z,99641.69
2022-10-01T15:13:04.290Z,99657.72
2022-10-01T15:23:06.297Z,99664.94
2022-10-01T15:33:17.927Z,99687.66
2022-10-01T15:43:23.703Z,99695.06
2022-10-01T15:53:25.509Z,99686.09
2022-10-01T16:03:32.564Z,99681.78
2022-10-01T16:13:34.092Z,99689.22
2022-10-01T16:23:50.241Z,99682.81
2022-10-01T16:33:52.333Z,99694.94
2022-10-01T16:43:57.396Z,99711.34
2022-10-01T16:54:01.876Z,99702.53
2022-10-01T17:04:05.599Z,99699.78
2022-10-01T17:14:08.879Z,99688.50
2022-10-01T17:24:11.464Z,99691.34
2022-10-01T17:34:13.636Z,99698.34
2022-10-01T17:44:15.310Z,99701.41
2022-10-01T17:54:17.847Z,99710.28
2022-10-01T18:04:19.460Z,99709.81
2022-10-01T18:14:22.882Z,99709.44
2022-10-01T18:24:25.261Z,99734.75
2022-10-01T18:34:32.272Z,99743.56
2022-10-01T18:44:36.720Z,99764.69
2022-10-01T18:54:59.156Z,99776.72
2022-10-01T19:05:27.122Z,99791.41
2022-10-01T19:16:12.107Z,99789.03
2022-10-01T19:26:37.909Z,99794.19
2022-10-01T19:36:45.668Z,99807.28
2022-10-01T19:46:50.239Z,99810.94
2022-10-01T19:56:55.280Z,99819.94
2022-10-01T20:07:21.886Z,99824.31
2022-10-01T20:17:42.941Z,99824.34
2022-10-01T20:28:04.135Z,99834.81
2022-10-01T20:38:11.388Z,99844.38
2022-10-01T20:48:51.518Z,99858.41
2022-10-01T20:59:05.425Z,99872.38
2022-10-01T21:09:27.909Z,99901.88
2022-10-01T21:19:41.684Z,99902.09
2022-10-01T21:30:08.744Z,99924.47
2022-10-01T21:40:55.702Z,99923.56
2022-10-01T21:51:13.602Z,99920.53
2022-10-01T22:01:25.097Z,99911.38
2022-10-01T22:11:32.062Z,99916.97
2022-10-01T22:21:50.524Z,99914.72
2022-10-01T22:31:57.263Z,99910.81
2022-10-01T22:42:48.481Z,99918.66
2022-10-01T22:53:31.303Z,99943.19
2022-10-01T23:03:53.734Z,99952.88
2022-10-01T23:14:19.929Z,99958.31
2022-10-01T23:24:51.171Z,99938.13
2022-10-01T23:35:01.702Z,99935.94
2022-10-01T23:45:12.297Z,99939.19
2022-10-01T23:56:18.717Z,99967.25
